Time;durP1;ratioP1;P1;durP2;ratioP2;P2;SDS_P1;SDS_P2;PMS_P1;PMS_P2;Temp;Humidity;BMP_temperature;BMP_pressure;BME280_temperature;BME280_humidity;BME280_pressure;Samples;Min_cycle;Max_cycle;Signal;HPM_P1;HPM_P2
2023/04/15 00:02:00;;;;;;;0.35;0.35;;;3.40;95.00;;;;;;5035308;28;20221;-67
2023/04/15 00:04:27;;;;;;;0.30;0.30;;;3.50;94.80;;;;;;5034944;28;20258;-72
2023/04/15 00:06:53;;;;;;;0.40;0.40;;;3.50;94.60;;;;;;5035364;28;20167;-70
2023/04/15 00:09:20;;;;;;;0.40;0.40;;;3.50;94.50;;;;;;5035151;28;20207;-72
2023/04/15 00:11:45;;;;;;;0.40;0.40;;;3.40;94.50;;;;;;5035206;28;20573;-70
2023/04/15 00:14:12;;;;;;;0.40;0.40;;;3.40;94.50;;;;;;5017313;28;20225;-71
2023/04/15 00:16:38;;;;;;;0.40;0.40;;;3.40;94.60;;;;;;5035188;28;20174;-69
2023/04/15 00:19:03;;;;;;;0.40;0.40;;;3.40;94.60;;;;;;5035034;28;20262;-69
2023/04/15 00:21:30;;;;;;;0.40;0.40;;;3.40;94.50;;;;;;5035011;28;20200;-69
2023/04/15 00:23:55;;;;;;;0.30;0.30;;;3.30;94.60;;;;;;5034829;28;20266;-69
2023/04/15 00:26:21;;;;;;;0.40;0.40;;;3.30;94.90;;;;;;5034883;28;20198;-72
2023/04/15 00:28:47;;;;;;;0.50;0.50;;;3.40;95.10;;;;;;5034615;28;20250;-69
2023/04/15 00:31:13;;;;;;;0.33;0.33;;;3.50;95.30;;;;;;5035012;28;20174;-72
2023/04/15 00:33:39;;;;;;;0.30;0.30;;;3.60;95.50;;;;;;5034861;28;20799;-69
2023/04/15 00:36:05;;;;;;;1.00;1.00;;;3.60;95.20;;;;;;5017104;28;20801;-69
2023/04/15 00:38:31;;;;;;;0.40;0.40;;;3.70;95.20;;;;;;5034797;28;20439;-70
2023/04/15 00:40:57;;;;;;;0.93;0.93;;;3.80;95.20;;;;;;5016846;28;20194;-69
2023/04/15 00:43:25;;;;;;;0.40;0.40;;;3.90;95.50;;;;;;5034734;28;20522;-69
2023/04/15 00:45:52;;;;;;;0.82;0.82;;;3.90;95.60;;;;;;5034544;28;20187;-68
2023/04/15 00:48:18;;;;;;;0.80;0.80;;;4.00;95.60;;;;;;5034540;28;20198;-69
2023/04/15 00:50:44;;;;;;;0.30;0.30;;;4.10;95.50;;;;;;5034636;28;20175;-67
2023/04/15 00:53:10;;;;;;;0.40;0.40;;;4.20;95.30;;;;;;5016709;28;20536;-67
2023/04/15 00:55:36;;;;;;;0.40;0.40;;;4.20;95.20;;;;;;5034318;28;20237;-68
2023/04/15 00:58:02;;;;;;;1.13;1.05;;;4.20;95.20;;;;;;5034285;28;20166;-69
2023/04/15 01:00:29;;;;;;;0.40;0.40;;;4.30;95.10;;;;;;5034434;28;20248;-68
2023/04/15 01:02:54;;;;;;;0.63;0.50;;;4.40;95.30;;;;;;5034413;28;20589;-68
2023/04/15 01:05:20;;;;;;;0.40;0.40;;;4.50;95.30;;;;;;5034365;28;20222;-72
2023/04/15 01:07:47;;;;;;;0.70;0.70;;;4.60;95.00;;;;;;5034093;28;20250;-71
2023/04/15 01:10:13;;;;;;;0.50;0.50;;;4.70;94.80;;;;;;5034168;28;20174;-70
2023/04/15 01:12:39;;;;;;;0.60;0.57;;;4.70;94.90;;;;;;5034193;28;20171;-69
2023/04/15 01:15:05;;;;;;;0.30;0.30;;;4.80;95.20;;;;;;5033150;28;20186;-72
2023/04/15 01:17:31;;;;;;;0.40;0.40;;;4.70;95.20;;;;;;5034217;28;20182;-72
2023/04/15 01:19:57;;;;;;;0.50;0.50;;;4.80;95.30;;;;;;5016204;28;20183;-69
2023/04/15 01:22:25;;;;;;;0.40;0.40;;;4.80;95.30;;;;;;5033826;28;20206;-70
2023/04/15 01:25:01;;;;;;;0.40;0.40;;;4.90;95.10;;;;;;5033772;28;20561;-70
2023/04/15 01:27:26;;;;;;;0.88;0.88;;;4.90;94.90;;;;;;5034067;28;20224;-70
2023/04/15 01:29:52;;;;;;;0.40;0.40;;;4.80;94.50;;;;;;5033110;28;20253;-72
2023/04/15 01:32:18;;;;;;;0.40;0.40;;;4.80;94.80;;;;;;5032823;28;20425;-69
2023/04/15 01:34:44;;;;;;;0.40;0.40;;;4.80;95.10;;;;;;5034096;28;20182;-71
2023/04/15 01:37:10;;;;;;;0.77;0.77;;;4.90;95.20;;;;;;5033665;28;20179;-68
2023/04/15 01:39:36;;;;;;;0.40;0.40;;;5.00;95.10;;;;;;5033205;28;20808;-70
2023/04/15 01:42:02;;;;;;;0.50;0.50;;;4.90;94.60;;;;;;5033636;28;20210;-71
2023/04/15 01:44:28;;;;;;;0.40;0.40;;;4.80;94.90;;;;;;5033442;28;20178;-70
2023/04/15 01:46:54;;;;;;;0.50;0.50;;;4.90;95.20;;;;;;5033596;28;20599;-67
2023/04/15 01:49:20;;;;;;;0.40;0.40;;;5.00;95.20;;;;;;5033508;28;20825;-72
2023/04/15 01:51:45;;;;;;;0.30;0.30;;;5.10;95.10;;;;;;5033620;28;20167;-69
2023/04/15 01:54:11;;;;;;;0.70;0.70;;;5.10;95.00;;;;;;5033454;28;20515;-70
2023/04/15 01:56:37;;;;;;;0.40;0.40;;;5.20;95.00;;;;;;5033557;28;20175;-71
2023/04/15 01:59:03;;;;;;;0.40;0.40;;;5.20;94.70;;;;;;5015599;28;20167;-72
2023/04/15 02:01:29;;;;;;;0.63;0.63;;;5.30;94.80;;;;;;5033169;28;20206;-69
2023/04/15 02:03:54;;;;;;;0.50;0.50;;;5.30;94.10;;;;;;5033271;28;20163;-68
2023/04/15 02:06:20;;;;;;;0.50;0.50;;;5.30;94.40;;;;;;5033293;28;20281;-69
2023/04/15 02:08:45;;;;;;;0.40;0.40;;;5.30;94.60;;;;;;5033058;28;20257;-72
2023/04/15 02:11:11;;;;;;;0.40;0.40;;;5.20;94.80;;;;;;5033150;28;20611;-72
2023/04/15 02:13:37;;;;;;;0.40;0.40;;;5.20;94.70;;;;;;5033269;28;20682;-71
2023/04/15 02:16:02;;;;;;;0.50;0.50;;;5.30;94.80;;;;;;5015358;28;20191;-69
2023/04/15 02:18:28;;;;;;;0.60;0.60;;;5.30;94.50;;;;;;5032860;28;20261;-69
2023/04/15 02:20:56;;;;;;;0.40;0.40;;;5.20;94.20;;;;;;5032420;28;20442;-71
2023/04/15 02:23:21;;;;;;;0.57;0.50;;;5.20;94.70;;;;;;5033044;28;20168;-70
2023/04/15 02:25:47;;;;;;;4.43;2.97;;;5.40;94.80;;;;;;5034046;28;20193;-70
2023/04/15 02:28:12;;;;;;;0.40;0.40;;;5.50;94.60;;;;;;5035735;28;20164;-68
2023/04/15 02:30:39;;;;;;;0.57;0.57;;;5.50;94.80;;;;;;5036236;28;20195;-69
2023/04/15 02:33:06;;;;;;;0.40;0.40;;;5.50;94.80;;;;;;5036764;28;20235;-70
2023/04/15 02:35:32;;;;;;;0.40;0.40;;;5.50;94.60;;;;;;5036189;28;20552;-70
2023/04/15 02:37:58;;;;;;;0.60;0.60;;;5.50;94.90;;;;;;5035927;28;20167;-71
2023/04/15 02:40:23;;;;;;;0.40;0.40;;;5.40;95.10;;;;;;5036960;28;20185;-72
2023/04/15 02:42:49;;;;;;;0.43;0.43;;;5.40;95.30;;;;;;5037421;28;20643;-70
2023/04/15 02:45:15;;;;;;;0.50;0.50;;;5.50;95.20;;;;;;5036959;28;20274;-71
2023/04/15 02:47:40;;;;;;;1.33;1.00;;;5.50;95.20;;;;;;5036886;28;20657;-71
2023/04/15 02:50:08;;;;;;;0.40;0.40;;;5.50;95.30;;;;;;5036669;28;20402;-71
2023/04/15 02:52:34;;;;;;;0.75;0.75;;;5.50;95.30;;;;;;5036577;28;20177;-69
2023/04/15 02:55:01;;;;;;;1.77;1.77;;;5.50;95.40;;;;;;5036702;28;20186;-68
2023/04/15 02:57:29;;;;;;;0.40;0.40;;;5.60;95.20;;;;;;5036678;28;20193;-70
2023/04/15 02:59:55;;;;;;;0.30;0.30;;;5.70;95.30;;;;;;5036646;28;20259;-69
2023/04/15 03:02:21;;;;;;;0.40;0.40;;;5.60;95.30;;;;;;5036436;28;20625;-68
2023/04/15 03:04:46;;;;;;;0.90;0.90;;;5.50;95.20;;;;;;5036370;28;20187;-70
2023/04/15 03:07:12;;;;;;;0.70;0.70;;;5.50;95.50;;;;;;5036428;28;20171;-70
2023/04/15 03:09:40;;;;;;;0.40;0.40;;;5.60;96.00;;;;;;5036280;28;20549;-70
2023/04/15 03:12:05;;;;;;;0.55;0.55;;;5.50;96.10;;;;;;5018775;28;20179;-69
2023/04/15 03:14:31;;;;;;;0.40;0.40;;;5.50;95.40;;;;;;5036395;28;20252;-68
2023/04/15 03:16:58;;;;;;;0.90;0.90;;;5.50;95.20;;;;;;5036514;28;20408;-71
2023/04/15 03:19:24;;;;;;;0.52;0.52;;;5.60;94.70;;;;;;5036103;28;20267;-69
2023/04/15 03:21:50;;;;;;;4.10;1.48;;;5.70;94.70;;;;;;5036134;28;20241;-69
2023/04/15 03:24:16;;;;;;;0.40;0.40;;;5.70;94.60;;;;;;5036162;28;20190;-70
2023/04/15 03:26:42;;;;;;;0.50;0.50;;;5.70;94.60;;;;;;5036167;28;20171;-69
2023/04/15 03:29:08;;;;;;;0.40;0.40;;;5.80;95.00;;;;;;5035864;28;20410;-68
2023/04/15 03:31:33;;;;;;;0.50;0.50;;;5.80;95.30;;;;;;5035972;28;20172;-69
2023/04/15 03:33:59;;;;;;;0.37;0.37;;;5.80;95.50;;;;;;5036156;28;20262;-69
2023/04/15 03:36:25;;;;;;;0.40;0.40;;;5.80;95.60;;;;;;5018445;28;20205;-71
2023/04/15 03:38:50;;;;;;;0.40;0.40;;;5.80;95.70;;;;;;5034967;28;20211;-69
2023/04/15 03:41:16;;;;;;;0.77;0.60;;;5.80;95.90;;;;;;5035796;28;20451;-70
2023/04/15 03:43:42;;;;;;;0.87;0.73;;;5.80;95.50;;;;;;5035981;28;20262;-67
2023/04/15 03:46:07;;;;;;;0.30;0.30;;;5.90;95.60;;;;;;5035720;28;20188;-72
2023/04/15 03:48:33;;;;;;;0.40;0.40;;;5.90;95.60;;;;;;5035801;28;20165;-67
2023/04/15 03:50:58;;;;;;;0.40;0.40;;;6.00;95.50;;;;;;5035617;28;20224;-71
2023/04/15 03:53:24;;;;;;;0.40;0.40;;;6.00;95.40;;;;;;5035721;28;20172;-69
2023/04/15 03:55:50;;;;;;;0.90;0.70;;;6.00;95.70;;;;;;5035635;28;20223;-69
2023/04/15 03:58:15;;;;;;;0.50;0.50;;;6.10;95.70;;;;;;5035342;28;20175;-69
2023/04/15 04:00:41;;;;;;;8.87;0.80;;;6.20;95.30;;;;;;5035300;28;20179;-71
2023/04/15 04:03:07;;;;;;;0.60;0.60;;;6.20;95.10;;;;;;5035404;28;20163;-67
2023/04/15 04:05:35;;;;;;;0.40;0.40;;;6.20;95.40;;;;;;5035315;28;20666;-70
2023/04/15 04:08:01;;;;;;;0.50;0.50;;;6.20;95.20;;;;;;5035126;28;20173;-69
2023/04/15 04:10:27;;;;;;;2.73;1.90;;;6.20;95.40;;;;;;5035470;28;20187;-68
2023/04/15 04:12:52;;;;;;;4.53;2.00;;;6.00;95.70;;;;;;5034954;28;20177;-68
2023/04/15 04:15:18;;;;;;;2.40;2.20;;;6.10;95.90;;;;;;5035091;28;20679;-69
2023/04/15 04:17:44;;;;;;;0.77;0.77;;;6.20;95.70;;;;;;5035174;28;20219;-69
2023/04/15 04:20:10;;;;;;;0.50;0.50;;;6.30;95.70;;;;;;5035000;28;20600;-72
2023/04/15 04:22:39;;;;;;;1.10;1.10;;;6.20;95.80;;;;;;5035219;28;20581;-71
2023/04/15 04:25:07;;;;;;;0.40;0.40;;;6.20;95.70;;;;;;5035123;28;20184;-69
2023/04/15 04:27:33;;;;;;;0.50;0.50;;;6.10;95.60;;;;;;5034947;28;20673;-71
2023/04/15 04:29:59;;;;;;;0.60;0.60;;;6.00;95.40;;;;;;5034664;28;20210;-71
2023/04/15 04:32:24;;;;;;;0.40;0.40;;;6.00;95.70;;;;;;5034995;28;20202;-69
2023/04/15 04:34:50;;;;;;;0.60;0.60;;;6.10;95.80;;;;;;5034706;28;20196;-69
2023/04/15 04:37:16;;;;;;;0.43;0.43;;;6.00;95.90;;;;;;5034921;28;20173;-71
2023/04/15 04:39:41;;;;;;;0.33;0.33;;;6.00;96.60;;;;;;5034482;28;20187;-71
2023/04/15 04:42:07;;;;;;;0.60;0.60;;;6.00;96.70;;;;;;5034553;28;20278;-68
2023/04/15 04:44:33;;;;;;;0.90;0.60;;;6.10;97.00;;;;;;5034559;28;20180;-69
2023/04/15 04:46:58;;;;;;;1.80;0.70;;;6.10;96.80;;;;;;5034600;28;20206;-69
2023/04/15 04:49:24;;;;;;;0.50;0.50;;;6.20;96.70;;;;;;5034618;28;20171;-71
2023/04/15 04:51:50;;;;;;;0.40;0.40;;;6.20;96.70;;;;;;5034550;28;20168;-70
2023/04/15 04:54:16;;;;;;;0.40;0.40;;;6.20;96.60;;;;;;5034547;28;20503;-72
2023/04/15 04:56:42;;;;;;;1.08;0.60;;;6.20;96.80;;;;;;5034375;28;20411;-69
2023/04/15 04:59:08;;;;;;;0.40;0.40;;;6.30;97.00;;;;;;5034253;28;20278;-69
2023/04/15 05:01:34;;;;;;;0.30;0.30;;;6.30;97.20;;;;;;5034339;28;20203;-70
2023/04/15 05:04:00;;;;;;;0.73;0.70;;;6.30;97.40;;;;;;5034376;28;20178;-71
2023/04/15 05:06:26;;;;;;;1.55;1.48;;;6.40;97.50;;;;;;5034165;28;20680;-72
2023/04/15 05:08:52;;;;;;;0.95;0.95;;;6.40;97.30;;;;;;5034124;28;20194;-72
2023/04/15 05:11:17;;;;;;;1.27;1.17;;;6.60;96.90;;;;;;5034159;28;20172;-68
2023/04/15 05:13:43;;;;;;;1.57;1.30;;;6.60;96.80;;;;;;5034120;28;20183;-69
2023/04/15 05:16:09;;;;;;;13.43;1.20;;;6.60;96.60;;;;;;5034011;28;20263;-70
2023/04/15 05:18:35;;;;;;;0.90;0.87;;;6.60;96.40;;;;;;5033887;28;20542;-70
2023/04/15 05:21:01;;;;;;;0.40;0.40;;;6.60;96.30;;;;;;5016262;28;20665;-70
2023/04/15 05:23:27;;;;;;;1.98;1.88;;;6.70;96.10;;;;;;5033950;28;20236;-69
2023/04/15 05:25:53;;;;;;;0.53;0.53;;;6.70;96.20;;;;;;5016088;28;20196;-70
2023/04/15 05:28:18;;;;;;;2.57;2.37;;;6.80;96.30;;;;;;5033672;28;20170;-71
2023/04/15 05:30:44;;;;;;;1.90;1.90;;;6.80;96.40;;;;;;5033752;28;20595;-70
2023/04/15 05:33:10;;;;;;;0.70;0.70;;;6.90;96.50;;;;;;5034002;28;20178;-72
2023/04/15 05:35:35;;;;;;;1.17;0.80;;;6.90;96.30;;;;;;5033806;28;20272;-68
2023/04/15 05:38:01;;;;;;;0.63;0.63;;;7.00;96.50;;;;;;5033448;28;20632;-71
2023/04/15 05:40:27;;;;;;;1.70;1.07;;;7.00;96.80;;;;;;5033535;28;20181;-72
2023/04/15 05:42:52;;;;;;;0.50;0.50;;;7.00;97.20;;;;;;5033634;28;20539;-71
2023/04/15 05:45:18;;;;;;;0.53;0.53;;;7.20;97.00;;;;;;5033344;28;20572;-71
2023/04/15 05:47:43;;;;;;;0.47;0.47;;;7.30;96.90;;;;;;5033449;28;20659;-71
2023/04/15 05:50:09;;;;;;;0.93;0.93;;;7.40;96.80;;;;;;5033529;28;20517;-71
2023/04/15 05:52:35;;;;;;;2.05;1.33;;;7.50;96.60;;;;;;5033381;28;20696;-72
2023/04/15 05:55:01;;;;;;;0.40;0.40;;;7.50;95.90;;;;;;5033534;28;20209;-72
2023/04/15 05:57:27;;;;;;;0.40;0.40;;;7.50;95.50;;;;;;5033545;28;20415;-71
2023/04/15 05:59:52;;;;;;;0.50;0.50;;;7.40;95.40;;;;;;5015475;28;20500;-65
2023/04/15 06:02:18;;;;;;;0.53;0.53;;;7.50;97.30;;;;;;5033360;28;20659;-65
2023/04/15 06:04:44;;;;;;;2.10;1.17;;;8.20;99.40;;;;;;5033163;28;20206;-65
2023/04/15 06:07:12;;;;;;;0.40;0.40;;;9.00;98.40;;;;;;5033469;28;20171;-65
2023/04/15 06:09:37;;;;;;;0.30;0.30;;;9.70;96.40;;;;;;5032509;28;20181;-71
2023/04/15 06:12:03;;;;;;;0.40;0.40;;;10.10;92.80;;;;;;5033187;28;20171;-72
2023/04/15 06:14:29;;;;;;;11.43;1.47;;;10.30;91.20;;;;;;5015698;28;20692;-69
2023/04/15 06:16:54;;;;;;;0.30;0.30;;;10.00;90.40;;;;;;5033599;28;20171;-74
2023/04/15 06:19:20;;;;;;;0.77;0.77;;;9.70;90.70;;;;;;5033222;28;20183;-75
2023/04/15 06:21:45;;;;;;;0.30;0.30;;;9.60;91.30;;;;;;5033045;28;20677;-75
2023/04/15 06:24:11;;;;;;;0.40;0.40;;;9.50;91.50;;;;;;5032208;28;20194;-73
2023/04/15 06:26:37;;;;;;;0.90;0.90;;;9.50;91.20;;;;;;5032323;28;20175;-74
2023/04/15 06:29:03;;;;;;;0.40;0.40;;;9.30;90.10;;;;;;5032275;28;20406;-70
2023/04/15 06:31:29;;;;;;;0.40;0.40;;;9.30;89.40;;;;;;5129902;22;20223;-69
2023/04/15 06:33:55;;;;;;;0.40;0.40;;;9.30;86.50;;;;;;5011888;28;20182;-68
2023/04/15 06:36:20;;;;;;;0.40;0.40;;;9.50;85.60;;;;;;5012289;28;20278;-69
2023/04/15 06:38:46;;;;;;;0.30;0.30;;;9.70;82.80;;;;;;5012746;28;20170;-69
2023/04/15 06:41:12;;;;;;;0.30;0.30;;;9.90;80.80;;;;;;5012357;28;20462;-69
2023/04/15 06:43:38;;;;;;;0.40;0.40;;;10.10;79.90;;;;;;5012939;28;20248;-69
2023/04/15 06:46:04;;;;;;;0.50;0.50;;;10.50;78.70;;;;;;5012489;28;20675;-69
2023/04/15 06:48:30;;;;;;;0.57;0.57;;;10.70;76.30;;;;;;5012644;28;20421;-68
2023/04/15 06:50:57;;;;;;;0.30;0.30;;;10.90;75.80;;;;;;5012854;28;20422;-69
2023/04/15 06:53:23;;;;;;;0.80;0.80;;;10.90;74.90;;;;;;5013253;28;20176;-69
2023/04/15 06:55:49;;;;;;;0.40;0.40;;;11.20;74.80;;;;;;5011361;28;20449;-69
2023/04/15 06:58:16;;;;;;;1.27;1.17;;;11.60;74.10;;;;;;5012512;28;20419;-69
2023/04/15 07:00:41;;;;;;;0.73;0.73;;;11.90;72.50;;;;;;5012398;28;20501;-69
2023/04/15 07:03:09;;;;;;;0.40;0.40;;;12.00;72.00;;;;;;5012755;28;20546;-69
2023/04/15 07:05:35;;;;;;;0.40;0.40;;;12.00;73.30;;;;;;5011388;28;20187;-69
2023/04/15 07:08:01;;;;;;;0.60;0.40;;;11.90;73.90;;;;;;5012986;28;20758;-69
2023/04/15 07:10:26;;;;;;;0.50;0.50;;;11.50;75.30;;;;;;5012805;28;20179;-69
2023/04/15 07:12:52;;;;;;;0.50;0.50;;;11.20;76.90;;;;;;5013962;28;20279;-69
2023/04/15 07:15:18;;;;;;;0.60;0.60;;;11.00;78.00;;;;;;5016428;28;20191;-69
2023/04/15 07:17:43;;;;;;;0.60;0.60;;;11.00;79.10;;;;;;5016615;28;20175;-69
2023/04/15 07:20:09;;;;;;;0.60;0.60;;;11.00;78.30;;;;;;5015126;28;20234;-69
2023/04/15 07:22:35;;;;;;;0.30;0.30;;;11.00;77.30;;;;;;5016297;28;20211;-70
2023/04/15 07:25:00;;;;;;;0.77;0.73;;;10.80;78.30;;;;;;5016275;28;20778;-69
2023/04/15 07:27:26;;;;;;;0.70;0.70;;;10.80;78.80;;;;;;5016337;28;20254;-69
2023/04/15 07:29:52;;;;;;;0.40;0.40;;;10.80;79.30;;;;;;5016385;28;20172;-69
2023/04/15 07:32:18;;;;;;;0.43;0.43;;;10.90;79.50;;;;;;5015987;28;20616;-68
2023/04/15 07:34:44;;;;;;;0.50;0.50;;;10.80;79.10;;;;;;5014747;28;20527;-70
2023/04/15 07:37:10;;;;;;;0.67;0.67;;;10.60;79.10;;;;;;5016006;28;20442;-69
2023/04/15 07:39:36;;;;;;;0.50;0.50;;;10.40;79.40;;;;;;5016463;28;20435;-69
2023/04/15 07:42:03;;;;;;;0.63;0.63;;;10.00;81.70;;;;;;5013328;28;20603;-69
2023/04/15 07:44:28;;;;;;;0.60;0.60;;;10.00;81.90;;;;;;5015559;28;20446;-69
2023/04/15 07:46:55;;;;;;;0.30;0.30;;;9.90;81.40;;;;;;5014470;28;20534;-70
2023/04/15 07:49:20;;;;;;;0.30;0.30;;;9.90;82.70;;;;;;5016533;28;20490;-70
2023/04/15 07:51:47;;;;;;;0.70;0.50;;;10.20;86.50;;;;;;5014525;28;20622;-70
2023/04/15 07:54:13;;;;;;;1.02;0.77;;;10.80;89.00;;;;;;5015464;28;20195;-69
2023/04/15 07:56:40;;;;;;;0.40;0.40;;;11.30;84.40;;;;;;5016202;28;20577;-70
2023/04/15 07:59:06;;;;;;;0.40;0.40;;;11.70;82.10;;;;;;5015463;28;20413;-71
2023/04/15 08:01:32;;;;;;;4.40;2.20;;;11.90;79.20;;;;;;5015830;28;20798;-69
2023/04/15 08:03:58;;;;;;;0.60;0.60;;;11.90;77.40;;;;;;5014214;28;20403;-70
2023/04/15 08:06:24;;;;;;;1.53;1.43;;;11.50;77.50;;;;;;5015539;28;20763;-70
2023/04/15 08:08:50;;;;;;;0.40;0.40;;;11.10;79.20;;;;;;5015261;28;20411;-69
2023/04/15 08:11:16;;;;;;;0.50;0.50;;;11.00;79.40;;;;;;5015558;28;20182;-71
2023/04/15 08:13:42;;;;;;;0.50;0.50;;;11.00;79.90;;;;;;5015927;28;20415;-71
2023/04/15 08:16:21;;;;;;;0.30;0.30;;;11.10;79.80;;;;;;5015405;28;20552;-71
2023/04/15 08:18:48;;;;;;;0.70;0.70;;;11.20;79.30;;;;;;5014587;28;20179;-70
2023/04/15 08:21:14;;;;;;;0.40;0.40;;;11.20;77.80;;;;;;5014413;28;20465;-69
2023/04/15 08:23:40;;;;;;;1.13;0.77;;;11.30;77.40;;;;;;5014748;28;20402;-69
2023/04/15 08:26:07;;;;;;;0.40;0.40;;;11.20;78.10;;;;;;5015523;28;20693;-69
2023/04/15 08:28:33;;;;;;;4.15;0.82;;;10.60;77.80;;;;;;5014273;28;20208;-69
2023/04/15 08:30:58;;;;;;;0.30;0.30;;;10.60;78.40;;;;;;5013772;28;20219;-69
2023/04/15 08:33:24;;;;;;;0.80;0.80;;;10.70;79.00;;;;;;5014750;28;20258;-69
2023/04/15 08:35:50;;;;;;;1.70;0.70;;;10.70;79.30;;;;;;5014067;28;20201;-70
2023/04/15 08:38:16;;;;;;;0.50;0.50;;;10.70;78.20;;;;;;5012904;28;20456;-70
2023/04/15 08:40:45;;;;;;;0.30;0.30;;;10.80;76.50;;;;;;5013972;28;20222;-70
2023/04/15 08:43:16;;;;;;;0.50;0.50;;;10.90;75.90;;;;;;5014498;28;20462;-70
2023/04/15 08:45:42;;;;;;;0.30;0.30;;;11.10;75.60;;;;;;5014435;28;20414;-69
2023/04/15 08:48:15;;;;;;;0.40;0.40;;;11.10;75.10;;;;;;5013848;28;20552;-69
2023/04/15 08:50:41;;;;;;;0.30;0.30;;;11.10;74.60;;;;;;5013736;28;20406;-69
2023/04/15 08:53:07;;;;;;;0.40;0.40;;;10.90;73.10;;;;;;5014545;28;20870;-69
2023/04/15 08:55:38;;;;;;;0.40;0.40;;;11.00;73.60;;;;;;5014367;28;20195;-69
2023/04/15 08:58:05;;;;;;;0.53;0.50;;;11.00;72.40;;;;;;5013063;28;20925;-69
2023/04/15 09:00:32;;;;;;;0.63;0.63;;;10.70;73.40;;;;;;5014175;28;20738;-69
2023/04/15 09:02:58;;;;;;;0.50;0.50;;;10.60;74.50;;;;;;5014400;28;20545;-69
2023/04/15 09:05:24;;;;;;;1.70;1.60;;;10.70;72.90;;;;;;5014867;28;20510;-69
2023/04/15 09:07:50;;;;;;;0.40;0.40;;;10.50;73.40;;;;;;5014892;28;20406;-69
2023/04/15 09:10:16;;;;;;;2.20;2.03;;;10.40;73.30;;;;;;5014690;28;20171;-69
2023/04/15 09:12:42;;;;;;;1.33;0.70;;;10.30;74.80;;;;;;5014755;28;20461;-69
2023/04/15 09:15:11;;;;;;;2.63;2.30;;;10.40;75.40;;;;;;5014232;28;20430;-69
2023/04/15 09:17:42;;;;;;;1.90;1.33;;;10.70;76.00;;;;;;5014567;28;20168;-70
2023/04/15 09:20:13;;;;;;;0.40;0.40;;;11.20;76.30;;;;;;5013787;28;20413;-69
2023/04/15 09:22:42;;;;;;;0.90;0.70;;;11.50;76.00;;;;;;5013716;28;20457;-70
2023/04/15 09:25:28;;;;;;;0.57;0.57;;;12.00;76.60;;;;;;5013294;28;20434;-69
2023/04/15 09:27:58;;;;;;;1.13;1.03;;;11.90;72.50;;;;;;5012037;28;20937;-70
2023/04/15 09:30:26;;;;;;;2.07;1.87;;;12.00;72.00;;;;;;5012759;28;20414;-70
2023/04/15 09:32:56;;;;;;;0.40;0.40;;;12.20;71.30;;;;;;5012981;28;20430;-70
2023/04/15 09:35:23;;;;;;;0.47;0.47;;;11.90;67.80;;;;;;5013977;28;20466;-69
2023/04/15 09:37:50;;;;;;;0.40;0.40;;;11.40;67.00;;;;;;5014217;28;20426;-69
2023/04/15 09:40:33;;;;;;;0.73;0.60;;;11.10;68.90;;;;;;5013830;28;20403;-69
2023/04/15 09:43:03;;;;;;;0.40;0.40;;;10.80;70.70;;;;;;5014162;28;20445;-69
2023/04/15 09:45:30;;;;;;;0.40;0.40;;;10.80;72.10;;;;;;5014130;28;20422;-70
2023/04/15 09:48:15;;;;;;;1.13;0.90;;;10.90;72.10;;;;;;5014031;28;20924;-69
2023/04/15 09:50:41;;;;;;;1.33;1.23;;;11.30;73.60;;;;;;5013816;28;20390;-70
2023/04/15 09:53:14;;;;;;;1.07;1.00;;;12.00;69.10;;;;;;5014012;28;20792;-70
2023/04/15 09:55:44;;;;;;;0.60;0.60;;;12.60;67.40;;;;;;5014073;28;20485;-70
2023/04/15 09:58:18;;;;;;;0.37;0.37;;;12.90;64.60;;;;;;5013600;28;20402;-70
2023/04/15 10:00:46;;;;;;;1.40;0.83;;;13.20;65.50;;;;;;5012258;28;20415;-72
2023/04/15 10:03:13;;;;;;;0.63;0.60;;;13.40;65.10;;;;;;5012488;28;20418;-71
2023/04/15 10:05:39;;;;;;;0.40;0.40;;;13.50;64.60;;;;;;5012885;28;20418;-70
2023/04/15 10:08:05;;;;;;;0.40;0.40;;;12.70;65.70;;;;;;5013870;28;20472;-70
2023/04/15 10:10:32;;;;;;;0.50;0.40;;;12.50;68.00;;;;;;5012247;28;20207;-70
2023/04/15 10:12:57;;;;;;;0.30;0.30;;;12.70;67.10;;;;;;5013697;28;20750;-71
2023/04/15 10:15:24;;;;;;;0.60;0.60;;;12.90;67.40;;;;;;5013465;28;20513;-70
2023/04/15 10:17:53;;;;;;;0.87;0.87;;;12.90;64.80;;;;;;5013731;28;20202;-70
2023/04/15 10:20:21;;;;;;;0.60;0.60;;;13.10;64.00;;;;;;5011653;28;20406;-70
2023/04/15 10:22:47;;;;;;;0.63;0.57;;;13.30;63.80;;;;;;5011029;28;20541;-69
2023/04/15 10:25:15;;;;;;;0.53;0.53;;;13.40;67.40;;;;;;5012751;28;20440;-70
2023/04/15 10:27:41;;;;;;;1.07;0.57;;;14.00;66.50;;;;;;5010728;28;20462;-70
2023/04/15 10:30:07;;;;;;;0.73;0.73;;;14.40;63.40;;;;;;5010639;28;20417;-71
2023/04/15 10:32:34;;;;;;;0.50;0.40;;;14.30;61.90;;;;;;5011428;28;20436;-70
2023/04/15 10:35:00;;;;;;;0.80;0.80;;;14.30;62.70;;;;;;5012443;28;20430;-69
2023/04/15 10:37:37;;;;;;;0.83;0.83;;;14.60;61.10;;;;;;5012523;28;20410;-71
2023/04/15 10:40:31;;;;;;;0.80;0.77;;;14.60;59.60;;;;;;5012879;28;20419;-70
2023/04/15 10:43:01;;;;;;;0.83;0.83;;;14.30;60.60;;;;;;5013497;28;20446;-71
2023/04/15 10:45:37;;;;;;;2.10;0.80;;;14.30;59.40;;;;;;5012952;28;20431;-69
2023/04/15 10:48:06;;;;;;;1.40;1.30;;;14.20;59.50;;;;;;5016273;28;20746;-71
2023/04/15 10:50:32;;;;;;;0.70;0.60;;;14.00;60.10;;;;;;5016701;28;20446;-71
2023/04/15 10:53:01;;;;;;;0.60;0.60;;;14.20;60.10;;;;;;5016262;28;21323;-71
2023/04/15 10:55:31;;;;;;;1.00;1.00;;;14.30;59.90;;;;;;5017043;28;20441;-71
2023/04/15 10:58:01;;;;;;;0.60;0.60;;;14.20;59.00;;;;;;5016617;28;20413;-72
2023/04/15 11:00:32;;;;;;;0.43;0.43;;;14.10;60.10;;;;;;5016968;28;20417;-71
2023/04/15 11:03:05;;;;;;;0.43;0.43;;;14.00;59.40;;;;;;5016373;28;20491;-69
2023/04/15 11:06:00;;;;;;;3.03;2.10;;;13.70;61.70;;;;;;5016317;28;20791;-70
2023/04/15 11:09:04;;;;;;;0.30;0.30;;;13.60;60.40;;;;;;4998580;28;20541;-70
2023/04/15 11:12:05;;;;;;;0.40;0.40;;;13.40;61.10;;;;;;5016112;28;20430;-69
2023/04/15 11:14:33;;;;;;;1.90;0.80;;;13.30;62.10;;;;;;5014449;28;20525;-69
2023/04/15 11:16:59;;;;;;;5.13;2.50;;;13.50;62.50;;;;;;5014046;28;20410;-70
2023/04/15 11:19:24;;;;;;;1.37;1.27;;;13.50;63.50;;;;;;5015807;28;20746;-70
2023/04/15 11:21:51;;;;;;;1.50;1.40;;;13.30;63.90;;;;;;5015968;28;20199;-70
2023/04/15 11:24:26;;;;;;;0.47;0.47;;;13.10;64.80;;;;;;5014345;28;20183;-70
2023/04/15 11:27:00;;;;;;;24.90;2.33;;;12.70;67.20;;;;;;5015456;28;20406;-70
2023/04/15 11:29:32;;;;;;;31.17;1.80;;;12.60;65.90;;;;;;5016360;28;20406;-70
2023/04/15 11:32:06;;;;;;;0.80;0.80;;;12.50;66.60;;;;;;5015889;28;20429;-69
2023/04/15 11:34:32;;;;;;;0.83;0.70;;;12.60;67.70;;;;;;5016330;28;20455;-71
2023/04/15 11:36:57;;;;;;;5.90;1.90;;;12.60;67.10;;;;;;5016368;28;20914;-71
2023/04/15 11:39:23;;;;;;;1.60;1.30;;;12.40;68.10;;;;;;5015770;28;20255;-71
2023/04/15 11:41:48;;;;;;;0.53;0.50;;;12.40;69.00;;;;;;5015882;28;20655;-70
2023/04/15 11:44:17;;;;;;;0.93;0.90;;;12.60;68.30;;;;;;5016146;28;20164;-71
2023/04/15 11:46:43;;;;;;;0.50;0.50;;;12.50;68.90;;;;;;5015873;28;20539;-71
2023/04/15 11:49:09;;;;;;;0.70;0.70;;;12.70;68.10;;;;;;5015998;28;20398;-70
2023/04/15 11:51:35;;;;;;;1.23;1.10;;;12.80;68.00;;;;;;5015700;28;20178;-71
2023/04/15 11:54:01;;;;;;;2.20;0.80;;;12.70;68.30;;;;;;5015823;28;20416;-71
2023/04/15 11:56:26;;;;;;;3.90;1.33;;;12.70;68.50;;;;;;5015664;28;20955;-69
2023/04/15 11:58:58;;;;;;;0.50;0.50;;;12.80;69.50;;;;;;5014794;28;20262;-70
2023/04/15 12:01:46;;;;;;;1.43;1.27;;;12.90;69.70;;;;;;5014060;28;20191;-70
2023/04/15 12:04:19;;;;;;;0.60;0.60;;;12.70;69.80;;;;;;5014013;28;20410;-71
2023/04/15 12:06:45;;;;;;;0.87;0.87;;;12.50;70.30;;;;;;5015734;28;20379;-70
2023/04/15 12:09:11;;;;;;;0.87;0.87;;;12.50;71.90;;;;;;5015335;28;20469;-71
2023/04/15 12:11:44;;;;;;;1.50;0.70;;;12.30;72.80;;;;;;5015229;28;20171;-71
2023/04/15 12:14:12;;;;;;;0.40;0.40;;;12.30;71.40;;;;;;5015332;28;20402;-70
2023/04/15 12:16:40;;;;;;;3.60;2.50;;;12.30;71.20;;;;;;5015193;28;20459;-71
2023/04/15 12:19:12;;;;;;;1.33;1.00;;;12.40;70.60;;;;;;5015399;28;20457;-70
2023/04/15 12:21:40;;;;;;;1.53;0.60;;;12.40;70.60;;;;;;5015124;28;20446;-70
2023/04/15 12:24:09;;;;;;;0.68;0.68;;;12.30;71.20;;;;;;5015072;28;20407;-69
2023/04/15 12:26:37;;;;;;;0.70;0.40;;;12.10;72.60;;;;;;5015304;28;20383;-71
2023/04/15 12:29:06;;;;;;;1.00;0.57;;;11.90;74.40;;;;;;5015275;28;20182;-70
2023/04/15 12:31:32;;;;;;;0.65;0.65;;;11.70;75.10;;;;;;5014890;28;20924;-70
2023/04/15 12:33:59;;;;;;;0.60;0.60;;;11.60;76.80;;;;;;5015118;28;20187;-73
2023/04/15 12:36:26;;;;;;;1.90;0.50;;;11.40;77.70;;;;;;5014863;28;20427;-71
2023/04/15 12:38:51;;;;;;;0.77;0.77;;;11.40;78.90;;;;;;5015501;28;20417;-69
2023/04/15 12:41:18;;;;;;;0.67;0.67;;;11.40;80.20;;;;;;5014274;28;20449;-68
2023/04/15 12:43:45;;;;;;;0.40;0.40;;;11.40;81.30;;;;;;5013910;28;20222;-68
2023/04/15 12:46:12;;;;;;;1.07;0.77;;;11.70;84.00;;;;;;5014575;28;20454;-67
2023/04/15 12:48:38;;;;;;;1.73;1.63;;;12.10;83.80;;;;;;5013890;28;20417;-68
2023/04/15 12:51:04;;;;;;;3.73;2.57;;;12.50;82.50;;;;;;5014340;28;20488;-68
2023/04/15 12:53:30;;;;;;;1.97;1.80;;;12.80;79.20;;;;;;5014341;28;20411;-71